sensor_id;sensor_type;location;lat;lon;timestamp;temperature;humidity
50544;DHT22;41176;44.032;20.900;2023-08-24T00:01:21;24.80;99.90
50544;DHT22;41176;44.032;20.900;2023-08-24T00:03:47;24.80;99.90
50544;DHT22;41176;44.032;20.900;2023-08-24T00:06:13;24.80;99.90
50544;DHT22;41176;44.032;20.900;2023-08-24T00:08:39;24.80;99.90
50544;DHT22;41176;44.032;20.900;2023-08-24T00:11:04;24.90;99.90
50544;DHT22;41176;44.032;20.900;2023-08-24T00:13:31;24.90;99.90
50544;DHT22;41176;44.032;20.900;2023-08-24T00:15:57;24.90;99.90
50544;DHT22;41176;44.032;20.900;2023-08-24T00:18:24;25.00;99.90
50544;DHT22;41176;44.032;20.900;2023-08-24T00:20:49;25.10;99.90
50544;DHT22;41176;44.032;20.900;2023-08-24T00:23:17;25.10;99.90
50544;DHT22;41176;44.032;20.900;2023-08-24T00:25:43;25.10;99.90
50544;DHT22;41176;44.032;20.900;2023-08-24T00:28:10;25.10;99.90
50544;DHT22;41176;44.032;20.900;2023-08-24T00:30:36;25.10;99.90
50544;DHT22;41176;44.032;20.900;2023-08-24T00:33:02;25.10;99.90
50544;DHT22;41176;44.032;20.900;2023-08-24T00:35:28;25.10;99.90
50544;DHT22;41176;44.032;20.900;2023-08-24T00:37:53;25.20;99.90
50544;DHT22;41176;44.032;20.900;2023-08-24T00:40:19;25.20;99.90
50544;DHT22;41176;44.032;20.900;2023-08-24T00:42:45;25.20;99.90
50544;DHT22;41176;44.032;20.900;2023-08-24T00:45:14;25.10;99.90
50544;DHT22;41176;44.032;20.900;2023-08-24T00:47:45;25.10;99.90
50544;DHT22;41176;44.032;20.900;2023-08-24T00:50:11;25.10;99.90
50544;DHT22;41176;44.032;20.900;2023-08-24T00:52:42;24.90;99.90
50544;DHT22;41176;44.032;20.900;2023-08-24T00:55:09;24.60;99.90
50544;DHT22;41176;44.032;20.900;2023-08-24T00:57:37;24.60;99.90
50544;DHT22;41176;44.032;20.900;2023-08-24T01:00:05;24.70;99.90
50544;DHT22;41176;44.032;20.900;2023-08-24T01:02:32;24.70;99.90
50544;DHT22;41176;44.032;20.900;2023-08-24T01:04:59;24.70;99.90
50544;DHT22;41176;44.032;20.900;2023-08-24T01:07:25;24.60;99.90
50544;DHT22;41176;44.032;20.900;2023-08-24T01:09:51;24.50;99.90
50544;DHT22;41176;44.032;20.900;2023-08-24T01:15:07;24.40;99.90
50544;DHT22;41176;44.032;20.900;2023-08-24T01:17:35;24.30;99.90
50544;DHT22;41176;44.032;20.900;2023-08-24T01:20:04;24.20;99.90
50544;DHT22;41176;44.032;20.900;2023-08-24T01:22:34;24.20;99.90
50544;DHT22;41176;44.032;20.900;2023-08-24T01:25:16;24.10;99.90
50544;DHT22;41176;44.032;20.900;2023-08-24T01:27:43;24.00;99.90
50544;DHT22;41176;44.032;20.900;2023-08-24T01:30:10;24.00;99.90
50544;DHT22;41176;44.032;20.900;2023-08-24T01:32:36;24.00;99.90
50544;DHT22;41176;44.032;20.900;2023-08-24T01:35:06;24.00;99.90
50544;DHT22;41176;44.032;20.900;2023-08-24T01:37:34;24.00;99.90
50544;DHT22;41176;44.032;20.900;2023-08-24T01:42:43;24.10;99.90
50544;DHT22;41176;44.032;20.900;2023-08-24T01:45:11;24.00;99.90
50544;DHT22;41176;44.032;20.900;2023-08-24T01:47:39;24.00;99.90
50544;DHT22;41176;44.032;20.900;2023-08-24T01:50:07;24.00;99.90
50544;DHT22;41176;44.032;20.900;2023-08-24T01:52:34;24.00;99.90
50544;DHT22;41176;44.032;20.900;2023-08-24T01:55:00;24.00;99.90
50544;DHT22;41176;44.032;20.900;2023-08-24T01:57:25;24.00;99.90
50544;DHT22;41176;44.032;20.900;2023-08-24T01:59:51;24.00;99.90
50544;DHT22;41176;44.032;20.900;2023-08-24T02:02:17;24.00;99.90
50544;DHT22;41176;44.032;20.900;2023-08-24T02:04:43;24.00;99.90
50544;DHT22;41176;44.032;20.900;2023-08-24T02:07:08;24.00;99.90
50544;DHT22;41176;44.032;20.900;2023-08-24T02:09:34;24.00;99.90
50544;DHT22;41176;44.032;20.900;2023-08-24T02:12:00;24.10;99.90
50544;DHT22;41176;44.032;20.900;2023-08-24T02:14:26;24.10;99.90
50544;DHT22;41176;44.032;20.900;2023-08-24T02:16:51;24.10;99.90
50544;DHT22;41176;44.032;20.900;2023-08-24T02:19:17;24.10;99.90
50544;DHT22;41176;44.032;20.900;2023-08-24T02:21:43;24.10;99.90
50544;DHT22;41176;44.032;20.900;2023-08-24T02:24:08;24.10;99.90
50544;DHT22;41176;44.032;20.900;2023-08-24T02:26:34;24.10;99.90
50544;DHT22;41176;44.032;20.900;2023-08-24T02:29:00;24.10;99.90
50544;DHT22;41176;44.032;20.900;2023-08-24T02:31:26;24.10;99.90
50544;DHT22;41176;44.032;20.900;2023-08-24T02:33:51;24.10;99.90
50544;DHT22;41176;44.032;20.900;2023-08-24T02:36:17;24.10;99.90
50544;DHT22;41176;44.032;20.900;2023-08-24T02:38:43;24.10;99.90
50544;DHT22;41176;44.032;20.900;2023-08-24T02:41:09;24.20;99.90
50544;DHT22;41176;44.032;20.900;2023-08-24T02:43:36;24.20;99.90
50544;DHT22;41176;44.032;20.900;2023-08-24T02:46:03;24.20;99.90
50544;DHT22;41176;44.032;20.900;2023-08-24T02:48:30;24.20;99.90
50544;DHT22;41176;44.032;20.900;2023-08-24T02:51:00;24.20;99.90
50544;DHT22;41176;44.032;20.900;2023-08-24T02:53:26;24.20;99.90
50544;DHT22;41176;44.032;20.900;2023-08-24T02:55:53;24.20;99.90
50544;DHT22;41176;44.032;20.900;2023-08-24T02:58:19;24.20;99.90
50544;DHT22;41176;44.032;20.900;2023-08-24T03:00:45;24.20;99.90
50544;DHT22;41176;44.032;20.900;2023-08-24T03:03:13;24.20;99.90
50544;DHT22;41176;44.032;20.900;2023-08-24T03:05:40;24.20;99.90
50544;DHT22;41176;44.032;20.900;2023-08-24T03:08:05;24.20;99.90
50544;DHT22;41176;44.032;20.900;2023-08-24T03:10:35;24.30;99.90
50544;DHT22;41176;44.032;20.900;2023-08-24T03:13:00;24.30;99.90
50544;DHT22;41176;44.032;20.900;2023-08-24T03:15:26;24.30;99.90
50544;DHT22;41176;44.032;20.900;2023-08-24T03:17:52;24.30;99.90
50544;DHT22;41176;44.032;20.900;2023-08-24T03:20:18;24.30;99.90
50544;DHT22;41176;44.032;20.900;2023-08-24T03:22:44;24.30;99.90
50544;DHT22;41176;44.032;20.900;2023-08-24T03:25:10;24.30;99.90
50544;DHT22;41176;44.032;20.900;2023-08-24T03:27:37;24.30;99.90
50544;DHT22;41176;44.032;20.900;2023-08-24T03:30:03;24.30;99.90
50544;DHT22;41176;44.032;20.900;2023-08-24T03:32:29;24.20;99.90
50544;DHT22;41176;44.032;20.900;2023-08-24T03:34:59;24.20;99.90
50544;DHT22;41176;44.032;20.900;2023-08-24T03:37:25;24.20;99.90
50544;DHT22;41176;44.032;20.900;2023-08-24T03:39:51;24.20;99.90
50544;DHT22;41176;44.032;20.900;2023-08-24T03:42:17;24.20;99.90
50544;DHT22;41176;44.032;20.900;2023-08-24T03:44:43;24.20;99.90
50544;DHT22;41176;44.032;20.900;2023-08-24T03:47:08;24.20;99.90
50544;DHT22;41176;44.032;20.900;2023-08-24T03:49:34;24.30;99.90
50544;DHT22;41176;44.032;20.900;2023-08-24T03:52:00;24.20;99.90
50544;DHT22;41176;44.032;20.900;2023-08-24T03:54:26;24.10;99.90
50544;DHT22;41176;44.032;20.900;2023-08-24T03:56:52;24.10;99.90
50544;DHT22;41176;44.032;20.900;2023-08-24T03:59:18;24.10;99.90
50544;DHT22;41176;44.032;20.900;2023-08-24T04:01:44;24.10;99.90
50544;DHT22;41176;44.032;20.900;2023-08-24T04:04:09;24.10;99.90
50544;DHT22;41176;44.032;20.900;2023-08-24T04:06:35;24.10;99.90
50544;DHT22;41176;44.032;20.900;2023-08-24T04:09:02;24.20;99.90
50544;DHT22;41176;44.032;20.900;2023-08-24T04:11:27;24.20;99.90
50544;DHT22;41176;44.032;20.900;2023-08-24T04:13:53;24.20;99.90
50544;DHT22;41176;44.032;20.900;2023-08-24T04:16:19;24.10;99.90
50544;DHT22;41176;44.032;20.900;2023-08-24T04:18:45;24.10;99.90
50544;DHT22;41176;44.032;20.900;2023-08-24T04:21:11;24.20;99.90
50544;DHT22;41176;44.032;20.900;2023-08-24T04:23:37;24.20;99.90
50544;DHT22;41176;44.032;20.900;2023-08-24T04:26:02;24.20;99.90
50544;DHT22;41176;44.032;20.900;2023-08-24T04:28:30;24.20;99.90
50544;DHT22;41176;44.032;20.900;2023-08-24T04:30:57;24.30;99.90
50544;DHT22;41176;44.032;20.900;2023-08-24T04:33:23;24.20;99.90
50544;DHT22;41176;44.032;20.900;2023-08-24T04:35:50;24.30;99.90
50544;DHT22;41176;44.032;20.900;2023-08-24T05:55:05;25.70;99.90
50544;DHT22;41176;44.032;20.900;2023-08-24T05:57:31;25.60;99.90
50544;DHT22;41176;44.032;20.900;2023-08-24T06:00:40;25.70;99.90
50544;DHT22;41176;44.032;20.900;2023-08-24T06:03:08;25.80;99.90
50544;DHT22;41176;44.032;20.900;2023-08-24T06:12:34;26.10;99.90
50544;DHT22;41176;44.032;20.900;2023-08-24T06:15:17;26.30;99.90
50544;DHT22;41176;44.032;20.900;2023-08-24T06:17:54;26.40;99.90
50544;DHT22;41176;44.032;20.900;2023-08-24T06:30:25;26.70;99.90
50544;DHT22;41176;44.032;20.900;2023-08-24T06:33:06;26.80;99.90
50544;DHT22;41176;44.032;20.900;2023-08-24T06:36:25;26.90;99.90
50544;DHT22;41176;44.032;20.900;2023-08-24T06:39:10;26.90;99.90
50544;DHT22;41176;44.032;20.900;2023-08-24T06:42:13;27.20;99.90
50544;DHT22;41176;44.032;20.900;2023-08-24T06:58:33;28.00;99.90
50544;DHT22;41176;44.032;20.900;2023-08-24T07:04:21;28.30;99.90
50544;DHT22;41176;44.032;20.900;2023-08-24T07:06:47;28.30;99.90
50544;DHT22;41176;44.032;20.900;2023-08-24T07:09:22;28.50;99.90
50544;DHT22;41176;44.032;20.900;2023-08-24T07:19:32;28.80;99.90
50544;DHT22;41176;44.032;20.900;2023-08-24T07:26:23;28.90;99.90
50544;DHT22;41176;44.032;20.900;2023-08-24T07:29:45;28.80;99.90
50544;DHT22;41176;44.032;20.900;2023-08-24T07:33:10;28.90;99.90
50544;DHT22;41176;44.032;20.900;2023-08-24T08:19:59;31.30;93.10
50544;DHT22;41176;44.032;20.900;2023-08-24T08:36:13;31.90;90.40
50544;DHT22;41176;44.032;20.900;2023-08-24T08:38:39;32.00;90.90
50544;DHT22;41176;44.032;20.900;2023-08-24T08:41:05;32.20;90.90
50544;DHT22;41176;44.032;20.900;2023-08-24T08:43:51;32.30;89.80
50544;DHT22;41176;44.032;20.900;2023-08-24T08:49:48;32.50;90.10
50544;DHT22;41176;44.032;20.900;2023-08-24T08:52:14;32.60;87.30
50544;DHT22;41176;44.032;20.900;2023-08-24T08:54:39;32.70;86.70
50544;DHT22;41176;44.032;20.900;2023-08-24T08:57:06;32.70;86.80
50544;DHT22;41176;44.032;20.900;2023-08-24T08:59:33;32.70;86.40
50544;DHT22;41176;44.032;20.900;2023-08-24T09:02:01;32.90;87.70
50544;DHT22;41176;44.032;20.900;2023-08-24T09:04:29;33.00;87.00
50544;DHT22;41176;44.032;20.900;2023-08-24T09:06:56;33.10;85.80
50544;DHT22;41176;44.032;20.900;2023-08-24T09:09:21;33.10;85.90
50544;DHT22;41176;44.032;20.900;2023-08-24T09:11:50;33.20;85.50
50544;DHT22;41176;44.032;20.900;2023-08-24T09:14:16;33.30;85.00
50544;DHT22;41176;44.032;20.900;2023-08-24T09:16:42;33.30;83.50
50544;DHT22;41176;44.032;20.900;2023-08-24T09:19:11;33.30;84.70
50544;DHT22;41176;44.032;20.900;2023-08-24T09:21:38;33.40;84.60
50544;DHT22;41176;44.032;20.900;2023-08-24T09:24:06;33.50;84.90
50544;DHT22;41176;44.032;20.900;2023-08-24T09:26:37;33.60;83.40
50544;DHT22;41176;44.032;20.900;2023-08-24T09:29:15;33.70;83.60
50544;DHT22;41176;44.032;20.900;2023-08-24T09:31:42;33.80;83.00
50544;DHT22;41176;44.032;20.900;2023-08-24T09:34:11;33.90;82.50
50544;DHT22;41176;44.032;20.900;2023-08-24T09:36:38;34.00;82.70
50544;DHT22;41176;44.032;20.900;2023-08-24T09:39:05;34.10;82.00
50544;DHT22;41176;44.032;20.900;2023-08-24T09:41:41;34.10;82.00
50544;DHT22;41176;44.032;20.900;2023-08-24T09:44:08;34.10;80.90
50544;DHT22;41176;44.032;20.900;2023-08-24T09:46:35;34.10;80.90
50544;DHT22;41176;44.032;20.900;2023-08-24T09:49:08;34.20;80.80
50544;DHT22;41176;44.032;20.900;2023-08-24T09:51:36;34.20;80.40
50544;DHT22;41176;44.032;20.900;2023-08-24T09:54:05;34.10;78.40
50544;DHT22;41176;44.032;20.900;2023-08-24T09:56:41;34.10;80.70
50544;DHT22;41176;44.032;20.900;2023-08-24T09:59:12;34.20;80.20
50544;DHT22;41176;44.032;20.900;2023-08-24T10:01:45;34.30;80.60
50544;DHT22;41176;44.032;20.900;2023-08-24T10:04:14;34.30;78.80
50544;DHT22;41176;44.032;20.900;2023-08-24T10:06:40;34.30;79.30
50544;DHT22;41176;44.032;20.900;2023-08-24T10:09:14;34.40;80.00
50544;DHT22;41176;44.032;20.900;2023-08-24T10:11:48;34.50;78.40
50544;DHT22;41176;44.032;20.900;2023-08-24T10:14:29;34.60;77.70
50544;DHT22;41176;44.032;20.900;2023-08-24T10:16:57;34.70;76.90
50544;DHT22;41176;44.032;20.900;2023-08-24T10:19:24;34.70;75.70
50544;DHT22;41176;44.032;20.900;2023-08-24T10:21:53;34.80;76.40
50544;DHT22;41176;44.032;20.900;2023-08-24T10:24:20;34.80;76.20
50544;DHT22;41176;44.032;20.900;2023-08-24T10:26:50;34.80;75.80
50544;DHT22;41176;44.032;20.900;2023-08-24T10:29:16;34.90;75.60
50544;DHT22;41176;44.032;20.900;2023-08-24T10:31:42;34.90;74.90
50544;DHT22;41176;44.032;20.900;2023-08-24T10:34:09;35.00;75.30
50544;DHT22;41176;44.032;20.900;2023-08-24T10:36:38;35.10;74.50
50544;DHT22;41176;44.032;20.900;2023-08-24T10:39:03;35.20;73.40
50544;DHT22;41176;44.032;20.900;2023-08-24T10:41:51;35.20;72.20
50544;DHT22;41176;44.032;20.900;2023-08-24T10:44:24;35.20;71.50
50544;DHT22;41176;44.032;20.900;2023-08-24T10:47:13;35.10;71.90
50544;DHT22;41176;44.032;20.900;2023-08-24T10:49:40;35.10;72.90
50544;DHT22;41176;44.032;20.900;2023-08-24T10:52:22;35.00;72.10
50544;DHT22;41176;44.032;20.900;2023-08-24T10:54:50;35.00;71.90
50544;DHT22;41176;44.032;20.900;2023-08-24T10:57:24;35.00;73.00
50544;DHT22;41176;44.032;20.900;2023-08-24T11:00:03;35.10;73.30
50544;DHT22;41176;44.032;20.900;2023-08-24T11:02:48;35.20;72.60
50544;DHT22;41176;44.032;20.900;2023-08-24T11:05:31;35.30;73.30
50544;DHT22;41176;44.032;20.900;2023-08-24T11:07:59;35.20;71.90
50544;DHT22;41176;44.032;20.900;2023-08-24T11:10:30;35.10;71.40
50544;DHT22;41176;44.032;20.900;2023-08-24T11:13:07;35.00;70.40
50544;DHT22;41176;44.032;20.900;2023-08-24T11:15:38;35.10;71.00
50544;DHT22;41176;44.032;20.900;2023-08-24T11:18:25;35.10;70.30
50544;DHT22;41176;44.032;20.900;2023-08-24T11:21:01;35.30;70.30
50544;DHT22;41176;44.032;20.900;2023-08-24T11:23:28;35.40;69.10
50544;DHT22;41176;44.032;20.900;2023-08-24T11:25:55;35.40;68.40
50544;DHT22;41176;44.032;20.900;2023-08-24T11:28:24;35.50;68.30
50544;DHT22;41176;44.032;20.900;2023-08-24T11:30:51;35.60;68.20
50544;DHT22;41176;44.032;20.900;2023-08-24T11:33:26;35.60;67.10
50544;DHT22;41176;44.032;20.900;2023-08-24T11:35:52;35.60;66.60
50544;DHT22;41176;44.032;20.900;2023-08-24T11:38:20;35.60;66.30
50544;DHT22;41176;44.032;20.900;2023-08-24T11:40:45;35.60;66.90
50544;DHT22;41176;44.032;20.900;2023-08-24T11:43:11;35.60;64.40
50544;DHT22;41176;44.032;20.900;2023-08-24T11:45:37;35.60;64.20
50544;DHT22;41176;44.032;20.900;2023-08-24T11:48:04;35.70;63.40
50544;DHT22;41176;44.032;20.900;2023-08-24T11:50:31;35.70;63.60
50544;DHT22;41176;44.032;20.900;2023-08-24T11:52:57;35.70;62.30
50544;DHT22;41176;44.032;20.900;2023-08-24T11:55:23;35.80;62.60
50544;DHT22;41176;44.032;20.900;2023-08-24T11:57:50;35.80;62.40
50544;DHT22;41176;44.032;20.900;2023-08-24T12:00:18;35.80;61.40
50544;DHT22;41176;44.032;20.900;2023-08-24T12:02:45;35.90;62.20
50544;DHT22;41176;44.032;20.900;2023-08-24T12:05:26;35.90;62.40
50544;DHT22;41176;44.032;20.900;2023-08-24T12:07:54;36.00;63.70
50544;DHT22;41176;44.032;20.900;2023-08-24T12:10:20;36.00;64.10
50544;DHT22;41176;44.032;20.900;2023-08-24T12:12:47;36.10;63.30
50544;DHT22;41176;44.032;20.900;2023-08-24T12:15:19;36.10;62.30
50544;DHT22;41176;44.032;20.900;2023-08-24T12:17:48;36.10;62.80
50544;DHT22;41176;44.032;20.900;2023-08-24T12:20:21;36.20;61.80
50544;DHT22;41176;44.032;20.900;2023-08-24T12:22:54;36.20;61.20
50544;DHT22;41176;44.032;20.900;2023-08-24T12:25:23;36.20;61.40
50544;DHT22;41176;44.032;20.900;2023-08-24T12:27:51;36.20;60.70
50544;DHT22;41176;44.032;20.900;2023-08-24T12:30:17;36.10;59.60
50544;DHT22;41176;44.032;20.900;2023-08-24T12:32:47;36.10;59.80
50544;DHT22;41176;44.032;20.900;2023-08-24T12:35:15;36.10;59.80
50544;DHT22;41176;44.032;20.900;2023-08-24T12:37:41;36.10;61.50
50544;DHT22;41176;44.032;20.900;2023-08-24T12:40:07;36.10;59.90
50544;DHT22;41176;44.032;20.900;2023-08-24T12:42:33;36.10;60.10
50544;DHT22;41176;44.032;20.900;2023-08-24T12:45:01;36.20;60.70
50544;DHT22;41176;44.032;20.900;2023-08-24T12:47:26;36.20;61.00
50544;DHT22;41176;44.032;20.900;2023-08-24T12:49:52;36.20;60.70
50544;DHT22;41176;44.032;20.900;2023-08-24T12:52:20;36.30;61.20
50544;DHT22;41176;44.032;20.900;2023-08-24T12:54:45;36.30;59.60
50544;DHT22;41176;44.032;20.900;2023-08-24T12:57:11;36.30;59.40
50544;DHT22;41176;44.032;20.900;2023-08-24T12:59:38;36.30;59.70
50544;DHT22;41176;44.032;20.900;2023-08-24T13:02:03;36.30;60.40
50544;DHT22;41176;44.032;20.900;2023-08-24T13:04:30;36.20;59.90
50544;DHT22;41176;44.032;20.900;2023-08-24T13:06:57;36.10;59.50
50544;DHT22;41176;44.032;20.900;2023-08-24T13:09:23;35.90;60.00
50544;DHT22;41176;44.032;20.900;2023-08-24T13:11:49;35.60;59.20
50544;DHT22;41176;44.032;20.900;2023-08-24T13:14:15;35.40;59.00
50544;DHT22;41176;44.032;20.900;2023-08-24T13:16:41;35.10;59.60
50544;DHT22;41176;44.032;20.900;2023-08-24T13:19:07;34.90;60.60
50544;DHT22;41176;44.032;20.900;2023-08-24T13:21:33;34.80;60.70
50544;DHT22;41176;44.032;20.900;2023-08-24T13:23:59;34.60;60.00
50544;DHT22;41176;44.032;20.900;2023-08-24T13:26:24;34.60;60.80
50544;DHT22;41176;44.032;20.900;2023-08-24T13:28:51;34.50;61.20
50544;DHT22;41176;44.032;20.900;2023-08-24T13:31:17;34.50;61.80
50544;DHT22;41176;44.032;20.900;2023-08-24T13:33:44;34.50;61.90
50544;DHT22;41176;44.032;20.900;2023-08-24T13:36:10;34.60;61.60
50544;DHT22;41176;44.032;20.900;2023-08-24T13:38:36;34.70;61.70
50544;DHT22;41176;44.032;20.900;2023-08-24T13:41:02;34.80;62.20
50544;DHT22;41176;44.032;20.900;2023-08-24T13:43:29;34.90;62.00
50544;DHT22;41176;44.032;20.900;2023-08-24T13:45:55;34.90;62.90
50544;DHT22;41176;44.032;20.900;2023-08-24T13:48:21;35.00;64.50
50544;DHT22;41176;44.032;20.900;2023-08-24T13:50:50;35.10;62.10
50544;DHT22;41176;44.032;20.900;2023-08-24T13:53:19;35.20;62.50
50544;DHT22;41176;44.032;20.900;2023-08-24T13:55:45;35.30;63.30
50544;DHT22;41176;44.032;20.900;2023-08-24T13:58:10;35.30;62.30
50544;DHT22;41176;44.032;20.900;2023-08-24T14:00:36;35.40;62.20
50544;DHT22;41176;44.032;20.900;2023-08-24T14:03:03;35.40;62.50
50544;DHT22;41176;44.032;20.900;2023-08-24T14:05:28;35.40;62.40
50544;DHT22;41176;44.032;20.900;2023-08-24T14:07:54;35.50;62.70
50544;DHT22;41176;44.032;20.900;2023-08-24T14:10:20;35.50;62.80
50544;DHT22;41176;44.032;20.900;2023-08-24T14:12:46;35.50;61.90
50544;DHT22;41176;44.032;20.900;2023-08-24T14:15:12;35.50;61.00
50544;DHT22;41176;44.032;20.900;2023-08-24T14:17:37;35.50;61.90
50544;DHT22;41176;44.032;20.900;2023-08-24T14:20:03;35.50;61.70
50544;DHT22;41176;44.032;20.900;2023-08-24T14:22:30;35.60;61.50
50544;DHT22;41176;44.032;20.900;2023-08-24T14:24:57;35.70;61.40
50544;DHT22;41176;44.032;20.900;2023-08-24T14:27:23;35.80;61.50
50544;DHT22;41176;44.032;20.900;2023-08-24T14:29:49;35.90;60.60
50544;DHT22;41176;44.032;20.900;2023-08-24T14:32:15;36.10;61.60
50544;DHT22;41176;44.032;20.900;2023-08-24T14:34:41;36.50;60.90
50544;DHT22;41176;44.032;20.900;2023-08-24T14:37:07;37.00;60.10
50544;DHT22;41176;44.032;20.900;2023-08-24T14:39:33;37.40;59.30
50544;DHT22;41176;44.032;20.900;2023-08-24T14:41:59;37.80;58.70
50544;DHT22;41176;44.032;20.900;2023-08-24T14:44:26;38.00;57.90
50544;DHT22;41176;44.032;20.900;2023-08-24T14:46:52;38.00;58.60
50544;DHT22;41176;44.032;20.900;2023-08-24T14:49:18;38.00;58.20
50544;DHT22;41176;44.032;20.900;2023-08-24T14:51:44;37.70;57.40
50544;DHT22;41176;44.032;20.900;2023-08-24T14:54:10;37.50;57.30
50544;DHT22;41176;44.032;20.900;2023-08-24T14:56:40;36.90;58.20
50544;DHT22;41176;44.032;20.900;2023-08-24T14:59:10;36.50;58.00
50544;DHT22;41176;44.032;20.900;2023-08-24T15:01:37;36.20;58.90
50544;DHT22;41176;44.032;20.900;2023-08-24T15:04:02;36.00;59.50
50544;DHT22;41176;44.032;20.900;2023-08-24T15:06:28;35.80;60.70
50544;DHT22;41176;44.032;20.900;2023-08-24T15:08:54;35.40;60.80
50544;DHT22;41176;44.032;20.900;2023-08-24T15:11:19;35.20;61.80
50544;DHT22;41176;44.032;20.900;2023-08-24T15:13:47;35.00;62.30
50544;DHT22;41176;44.032;20.900;2023-08-24T15:16:13;34.90;62.80
50544;DHT22;41176;44.032;20.900;2023-08-24T15:18:38;34.90;62.60
50544;DHT22;41176;44.032;20.900;2023-08-24T15:21:04;34.90;62.70
50544;DHT22;41176;44.032;20.900;2023-08-24T15:23:31;34.90;62.40
50544;DHT22;41176;44.032;20.900;2023-08-24T15:25:59;34.90;62.50
50544;DHT22;41176;44.032;20.900;2023-08-24T15:28:25;35.00;62.00
50544;DHT22;41176;44.032;20.900;2023-08-24T15:30:51;35.10;62.00
50544;DHT22;41176;44.032;20.900;2023-08-24T15:33:20;35.00;62.70
50544;DHT22;41176;44.032;20.900;2023-08-24T15:35:46;35.00;62.30
50544;DHT22;41176;44.032;20.900;2023-08-24T15:38:12;35.30;61.60
50544;DHT22;41176;44.032;20.900;2023-08-24T15:40:39;35.80;61.10
50544;DHT22;41176;44.032;20.900;2023-08-24T15:43:06;36.30;61.10
50544;DHT22;41176;44.032;20.900;2023-08-24T15:45:32;36.70;59.60
50544;DHT22;41176;44.032;20.900;2023-08-24T15:47:59;37.00;58.40
50544;DHT22;41176;44.032;20.900;2023-08-24T15:50:25;37.00;58.00
50544;DHT22;41176;44.032;20.900;2023-08-24T15:52:52;36.80;57.80
50544;DHT22;41176;44.032;20.900;2023-08-24T15:55:25;36.50;59.40
50544;DHT22;41176;44.032;20.900;2023-08-24T15:57:53;36.00;58.90
50544;DHT22;41176;44.032;20.900;2023-08-24T16:00:22;35.80;59.20
50544;DHT22;41176;44.032;20.900;2023-08-24T16:02:47;35.50;59.20
50544;DHT22;41176;44.032;20.900;2023-08-24T16:05:14;35.30;60.10
50544;DHT22;41176;44.032;20.900;2023-08-24T16:07:40;35.10;60.60
50544;DHT22;41176;44.032;20.900;2023-08-24T16:10:06;34.90;60.60
50544;DHT22;41176;44.032;20.900;2023-08-24T16:12:32;34.70;61.60
50544;DHT22;41176;44.032;20.900;2023-08-24T16:15:00;34.60;63.00
50544;DHT22;41176;44.032;20.900;2023-08-24T16:17:28;34.40;63.00
50544;DHT22;41176;44.032;20.900;2023-08-24T16:19:54;34.20;64.10
50544;DHT22;41176;44.032;20.900;2023-08-24T16:22:20;34.10;64.00
50544;DHT22;41176;44.032;20.900;2023-08-24T16:24:45;33.90;63.00
50544;DHT22;41176;44.032;20.900;2023-08-24T16:27:11;33.80;63.70
50544;DHT22;41176;44.032;20.900;2023-08-24T16:29:46;33.70;65.40
50544;DHT22;41176;44.032;20.900;2023-08-24T16:32:15;33.60;65.80
50544;DHT22;41176;44.032;20.900;2023-08-24T16:34:41;33.40;66.70
50544;DHT22;41176;44.032;20.900;2023-08-24T16:37:09;33.30;66.90
50544;DHT22;41176;44.032;20.900;2023-08-24T16:39:35;33.20;66.90
50544;DHT22;41176;44.032;20.900;2023-08-24T16:42:01;33.10;68.00
50544;DHT22;41176;44.032;20.900;2023-08-24T16:44:32;33.00;67.40
50544;DHT22;41176;44.032;20.900;2023-08-24T16:46:58;32.90;67.90
50544;DHT22;41176;44.032;20.900;2023-08-24T16:49:23;32.80;68.70
50544;DHT22;41176;44.032;20.900;2023-08-24T16:51:52;32.70;68.90
50544;DHT22;41176;44.032;20.900;2023-08-24T16:54:21;32.50;68.30
50544;DHT22;41176;44.032;20.900;2023-08-24T16:56:46;32.40;68.30
50544;DHT22;41176;44.032;20.900;2023-08-24T16:59:12;32.30;67.50
50544;DHT22;41176;44.032;20.900;2023-08-24T17:01:38;32.20;68.20
50544;DHT22;41176;44.032;20.900;2023-08-24T17:04:04;32.10;68.30
50544;DHT22;41176;44.032;20.900;2023-08-24T17:06:29;31.90;68.20
50544;DHT22;41176;44.032;20.900;2023-08-24T17:08:55;31.90;68.70
50544;DHT22;41176;44.032;20.900;2023-08-24T17:11:21;31.70;68.70
50544;DHT22;41176;44.032;20.900;2023-08-24T17:13:50;31.70;69.20
50544;DHT22;41176;44.032;20.900;2023-08-24T17:16:20;31.50;69.00
50544;DHT22;41176;44.032;20.900;2023-08-24T17:18:52;31.40;69.80
50544;DHT22;41176;44.032;20.900;2023-08-24T17:21:18;31.40;69.70
50544;DHT22;41176;44.032;20.900;2023-08-24T17:23:44;31.30;69.90
50544;DHT22;41176;44.032;20.900;2023-08-24T17:26:10;31.20;68.90
50544;DHT22;41176;44.032;20.900;2023-08-24T17:28:36;31.10;69.20
50544;DHT22;41176;44.032;20.900;2023-08-24T17:31:04;31.00;69.00
50544;DHT22;41176;44.032;20.900;2023-08-24T17:33:34;30.90;68.30
50544;DHT22;41176;44.032;20.900;2023-08-24T17:36:01;30.80;68.30
50544;DHT22;41176;44.032;20.900;2023-08-24T17:38:27;30.80;68.70
50544;DHT22;41176;44.032;20.900;2023-08-24T17:41:03;30.80;69.10
50544;DHT22;41176;44.032;20.900;2023-08-24T17:43:30;30.70;69.60
50544;DHT22;41176;44.032;20.900;2023-08-24T17:46:18;30.60;68.70
50544;DHT22;41176;44.032;20.900;2023-08-24T17:48:50;30.50;68.40
50544;DHT22;41176;44.032;20.900;2023-08-24T17:51:19;30.50;68.40
50544;DHT22;41176;44.032;20.900;2023-08-24T17:53:55;30.40;69.10
50544;DHT22;41176;44.032;20.900;2023-08-24T18:06:45;29.70;76.30
50544;DHT22;41176;44.032;20.900;2023-08-24T18:09:16;29.60;77.70
50544;DHT22;41176;44.032;20.900;2023-08-24T18:12:06;29.50;79.20
50544;DHT22;41176;44.032;20.900;2023-08-24T18:14:42;29.40;79.70
50544;DHT22;41176;44.032;20.900;2023-08-24T18:27:36;29.10;80.80
50544;DHT22;41176;44.032;20.900;2023-08-24T18:30:09;29.00;81.10
50544;DHT22;41176;44.032;20.900;2023-08-24T18:32:57;28.90;81.60
50544;DHT22;41176;44.032;20.900;2023-08-24T18:35:28;28.90;80.90
50544;DHT22;41176;44.032;20.900;2023-08-24T18:37:54;28.90;80.90
50544;DHT22;41176;44.032;20.900;2023-08-24T18:40:19;28.80;80.90
50544;DHT22;41176;44.032;20.900;2023-08-24T18:42:45;28.70;81.20
50544;DHT22;41176;44.032;20.900;2023-08-24T18:45:11;28.60;81.60
50544;DHT22;41176;44.032;20.900;2023-08-24T18:47:39;28.60;82.10
50544;DHT22;41176;44.032;20.900;2023-08-24T18:50:05;28.60;82.70
50544;DHT22;41176;44.032;20.900;2023-08-24T18:52:32;28.50;82.30
50544;DHT22;41176;44.032;20.900;2023-08-24T18:54:58;28.50;82.30